Time;durP1;ratioP1;P1;durP2;ratioP2;P2;SDS_P1;SDS_P2;PMS_P1;PMS_P2;Temp;Humidity;BMP_temperature;BMP_pressure;BME280_temperature;BME280_humidity;BME280_pressure;Samples;Min_cycle;Max_cycle;Signal;HPM_P1;HPM_P2
2023/01/09 00:00:52;;;;;;;3.20;2.40;;;11.00;94.10;;;11.45;61.43;96994.50;4962798;28;124045;-78
2023/01/09 00:03:19;;;;;;;2.33;2.10;;;11.00;94.10;;;11.47;61.52;96994.94;4969332;28;124067;-75
2023/01/09 00:05:46;;;;;;;3.13;2.40;;;11.80;94.50;;;11.46;61.68;96987.78;4968812;28;115166;-75
2023/01/09 00:08:12;;;;;;;2.53;2.33;;;11.00;94.10;;;11.46;61.72;96990.56;4969308;28;114974;-76
2023/01/09 00:10:39;;;;;;;3.47;2.20;;;11.00;94.10;;;11.47;61.34;96994.94;4969177;28;124083;-77
2023/01/09 00:13:05;;;;;;;3.30;2.60;;;11.00;94.40;;;11.48;61.69;96991.00;4967832;28;123576;-74
2023/01/09 00:15:32;;;;;;;2.97;2.53;;;11.00;94.10;;;11.47;61.49;96983.88;4967904;28;113711;-74
2023/01/09 00:17:58;;;;;;;4.03;2.80;;;11.10;94.10;;;11.47;61.42;96999.63;4970684;28;113113;-74
2023/01/09 00:20:25;;;;;;;2.80;2.50;;;11.00;94.10;;;11.46;61.33;96987.78;4968432;28;123953;-74
2023/01/09 00:22:51;;;;;;;2.80;2.33;;;11.10;94.50;;;11.42;61.64;96981.41;4966088;28;123133;-75
2023/01/09 00:25:18;;;;;;;4.63;2.53;;;11.30;94.20;;;11.38;61.67;96986.03;4974309;28;114074;-75
2023/01/09 00:27:44;;;;;;;4.90;2.63;;;10.90;94.10;;;11.33;61.99;96983.56;4970574;28;114422;-74
2023/01/09 00:30:11;;;;;;;3.30;2.10;;;12.10;94.60;;;11.28;61.82;96984.66;4965554;28;124252;-75
2023/01/09 00:32:38;;;;;;;2.43;2.13;;;10.80;94.10;;;11.23;61.78;96992.41;4961442;28;123835;-74
2023/01/09 00:35:08;;;;;;;2.80;2.40;;;10.80;94.20;;;11.20;62.33;96996.72;4964387;28;114350;-74
2023/01/09 00:37:34;;;;;;;3.37;2.40;;;10.80;94.30;;;11.18;62.36;96989.94;4962158;28;114324;-77
2023/01/09 00:40:01;;;;;;;2.10;1.90;;;10.70;94.30;;;11.14;62.30;96992.63;4969847;28;124067;-74
2023/01/09 00:42:33;;;;;;;1.97;1.77;;;10.70;94.40;;;11.12;62.63;96989.41;4970706;28;123860;-74
2023/01/09 00:45:07;;;;;;;2.30;2.00;;;10.70;94.40;;;11.09;62.50;96984.59;4970362;28;114299;-75
2023/01/09 00:47:41;;;;;;;2.53;2.20;;;10.70;94.50;;;11.09;62.48;96989.34;4972894;28;114806;-74
2023/01/09 00:50:16;;;;;;;2.60;2.13;;;10.70;94.50;;;11.08;62.86;96987.75;4972480;28;124570;-74
2023/01/09 00:52:44;;;;;;;2.77;2.10;;;10.60;94.50;;;11.09;62.63;96994.84;4969040;28;123834;-74
2023/01/09 00:55:13;;;;;;;2.30;1.73;;;10.70;94.60;;;11.10;62.90;96985.44;4969393;28;115152;-75
2023/01/09 00:57:39;;;;;;;1.73;1.50;;;10.70;94.60;;;11.14;62.59;96987.09;4971074;28;114705;-75
2023/01/09 01:00:09;;;;;;;2.70;1.80;;;10.70;94.70;;;11.17;62.84;96996.63;4970554;28;124107;-75
2023/01/09 01:02:36;;;;;;;3.07;1.93;;;10.70;94.70;;;11.18;62.95;96993.50;4960016;28;123724;-74
2023/01/09 01:07:52;;;;;;;1.73;1.40;;;10.70;94.70;;;11.14;62.85;96994.59;4962653;28;114380;-75
2023/01/09 01:10:23;;;;;;;1.77;1.63;;;10.70;94.70;;;11.16;63.12;96978.44;4969096;28;123246;-74
2023/01/09 01:12:50;;;;;;;1.83;1.57;;;10.70;94.80;;;11.16;62.50;96975.69;4968724;28;125497;-74
2023/01/09 01:15:18;;;;;;;2.40;1.53;;;10.70;94.80;;;11.13;62.67;96974.44;4970583;28;116100;-75
2023/01/09 01:17:45;;;;;;;1.60;1.27;;;10.60;94.70;;;11.09;62.66;96967.22;4971982;28;114076;-74
2023/01/09 01:20:16;;;;;;;1.40;1.20;;;10.60;94.80;;;11.06;62.52;96980.59;4968814;28;124056;-76
2023/01/09 01:22:42;;;;;;;1.30;1.20;;;10.60;94.80;;;11.05;62.98;96979.00;4983966;28;121676;-75
2023/01/09 01:25:11;;;;;;;1.20;1.00;;;10.90;94.90;;;11.02;62.71;96976.97;4963656;28;114237;-77
2023/01/09 01:27:38;;;;;;;1.30;1.20;;;10.60;94.80;;;11.02;62.98;96976.97;4966251;28;114521;-75
2023/01/09 01:30:10;;;;;;;1.27;1.07;;;10.60;94.80;;;11.02;62.83;96974.19;4967884;28;123557;-75
2023/01/09 01:32:38;;;;;;;1.47;1.33;;;10.60;94.90;;;11.00;62.95;96976.50;4969005;28;123804;-75
2023/01/09 01:35:06;;;;;;;1.10;1.00;;;10.60;94.90;;;11.00;63.07;96967.44;4967915;28;114325;-75
2023/01/09 01:37:34;;;;;;;1.23;1.13;;;10.60;94.90;;;10.99;63.17;96969.41;4968319;28;113787;-75
2023/01/09 01:40:01;;;;;;;1.40;1.13;;;10.50;94.90;;;10.99;63.18;96958.34;4983241;28;123974;-75
2023/01/09 01:42:27;;;;;;;1.03;0.93;;;10.60;95.00;;;11.01;63.12;96957.97;5003238;28;123584;-75
2023/01/09 01:44:59;;;;;;;1.93;1.30;;;10.50;94.90;;;11.02;63.03;96960.38;4968293;28;115276;-75
2023/01/09 01:47:53;;;;;;;1.20;1.10;;;10.60;95.00;;;11.01;63.41;96967.06;4967743;28;115365;-75
2023/01/09 01:50:33;;;;;;;2.47;1.20;;;10.60;95.10;;;11.01;63.18;96966.25;4974528;28;123796;-75
2023/01/09 01:53:15;;;;;;;1.63;1.20;;;10.60;95.10;;;10.99;63.30;96963.88;4966368;28;124781;-75
2023/01/09 01:56:23;;;;;;;1.40;1.07;;;10.60;95.10;;;10.97;63.55;96970.91;4962461;28;114371;-75
2023/01/09 01:59:23;;;;;;;1.13;1.03;;;10.50;95.10;;;10.91;63.64;96984.22;4986844;28;114103;-75
2023/01/09 02:01:53;;;;;;;1.30;1.00;;;10.50;95.20;;;10.88;63.55;96981.34;4967384;28;124547;-76
2023/01/09 02:04:20;;;;;;;1.47;1.03;;;10.50;95.10;;;10.86;63.83;96975.41;4973553;28;123924;-75
2023/01/09 02:06:50;;;;;;;1.00;0.90;;;10.50;95.10;;;10.83;63.88;96972.19;4968944;28;114058;-76
2023/01/09 02:09:19;;;;;;;1.60;1.33;;;10.40;95.20;;;10.84;63.81;96972.97;4999866;28;115742;-76
2023/01/09 02:11:51;;;;;;;1.00;0.90;;;10.40;95.20;;;10.84;63.80;96965.50;5001319;28;124044;-76
2023/01/09 02:14:21;;;;;;;1.27;1.00;;;10.40;95.20;;;10.86;63.75;96970.69;5002365;28;122958;-76
2023/01/09 02:16:58;;;;;;;1.30;1.00;;;10.40;95.30;;;10.87;63.67;96961.22;4967160;28;114001;-76
2023/01/09 02:20:31;;;;;;;1.20;1.10;;;10.40;95.50;;;10.86;63.36;96962.38;4967751;28;114025;-76
2023/01/09 02:23:28;;;;;;;1.00;0.90;;;10.40;95.30;;;10.85;63.47;96958.00;4957173;28;125089;-76
2023/01/09 02:26:51;;;;;;;0.90;0.80;;;10.40;95.30;;;10.83;63.67;96965.88;4997896;28;123465;-76
2023/01/09 02:29:41;;;;;;;1.03;0.90;;;10.40;95.20;;;10.80;63.54;96961.03;4968270;28;114553;-77
2023/01/09 02:33:01;;;;;;;1.10;0.97;;;10.40;95.20;;;10.81;63.44;96957.13;4969824;28;114231;-76
2023/01/09 02:35:33;;;;;;;1.40;1.00;;;10.40;95.30;;;10.81;64.06;96965.41;4970064;28;123943;-76
2023/01/09 02:38:16;;;;;;;1.03;0.93;;;10.40;95.30;;;10.82;63.79;96959.53;4967541;28;124079;-76
2023/01/09 02:41:13;;;;;;;1.30;1.00;;;10.40;95.30;;;10.84;63.90;96968.25;4953145;28;114382;-76
2023/01/09 02:43:40;;;;;;;1.00;0.90;;;10.40;95.30;;;10.86;63.52;96975.41;4971516;28;115081;-76
2023/01/09 02:46:25;;;;;;;7.60;0.90;;;10.40;95.30;;;10.87;63.75;96966.75;4968266;28;123364;-76
2023/01/09 02:48:53;;;;;;;1.30;0.87;;;10.50;95.40;;;10.86;63.74;96967.13;4968216;28;123899;-77
2023/01/09 02:51:39;;;;;;;1.00;0.90;;;10.40;95.40;;;10.85;64.22;96977.34;4974460;28;113813;-76
2023/01/09 02:54:40;;;;;;;1.00;0.90;;;10.40;95.40;;;10.78;63.60;96968.91;4972984;28;114061;-76
2023/01/09 02:57:36;;;;;;;1.00;0.80;;;10.40;95.40;;;10.76;63.80;96974.78;4961131;28;122919;-76
2023/01/09 03:00:50;;;;;;;1.00;0.90;;;10.40;95.50;;;10.73;64.10;96978.25;4965808;28;123583;-76
2023/01/09 03:03:34;;;;;;;0.90;0.77;;;10.30;95.50;;;10.73;64.31;96985.75;4970783;28;114461;-76
2023/01/09 03:06:20;;;;;;;2.23;1.20;;;10.40;95.50;;;10.73;63.99;96988.50;4970574;28;113998;-76
2023/01/09 03:08:56;;;;;;;0.93;0.83;;;10.30;95.50;;;10.72;63.79;97003.47;4966582;28;123904;-76
2023/01/09 03:11:26;;;;;;;0.80;0.70;;;10.30;95.50;;;10.72;64.34;97009.00;4983408;28;123856;-76
2023/01/09 03:14:04;;;;;;;2.60;1.00;;;10.30;95.50;;;10.73;63.86;97005.09;4963566;28;114374;-76
2023/01/09 03:16:35;;;;;;;1.10;0.90;;;10.40;95.60;;;10.73;63.98;97010.59;4999176;28;114021;-76
2023/01/09 03:19:06;;;;;;;1.00;0.90;;;10.20;95.50;;;10.70;63.90;97000.28;4985063;28;123309;-76
2023/01/09 03:21:34;;;;;;;0.83;0.80;;;10.30;95.60;;;10.69;64.33;96987.59;4969323;28;122975;-76
2023/01/09 03:24:01;;;;;;;1.53;0.90;;;10.20;95.50;;;10.69;64.26;96982.09;4963197;28;114056;-76
2023/01/09 03:26:29;;;;;;;0.90;0.80;;;10.30;95.60;;;10.68;64.20;96997.06;4966561;28;114000;-76
2023/01/09 03:28:57;;;;;;;1.80;0.90;;;10.40;95.70;;;10.68;64.00;97002.59;4970514;28;124667;-76
2023/01/09 03:31:24;;;;;;;0.97;0.80;;;10.30;95.70;;;10.67;64.38;97023.09;4967330;28;123567;-76
2023/01/09 03:33:50;;;;;;;0.90;0.80;;;10.30;95.70;;;10.61;63.99;97026.13;4965788;28;115164;-76
2023/01/09 03:36:19;;;;;;;1.00;0.80;;;10.30;95.70;;;10.58;64.34;97037.84;4968198;28;115241;-76
2023/01/09 03:38:46;;;;;;;1.00;0.80;;;10.20;95.60;;;10.52;64.04;97044.81;4957005;28;123910;-76
2023/01/09 03:41:13;;;;;;;0.90;0.80;;;10.50;95.70;;;10.49;64.30;97051.03;4970534;28;123896;-76
2023/01/09 03:43:39;;;;;;;1.00;0.80;;;10.10;95.60;;;10.50;64.08;97063.69;4967941;28;114003;-76
2023/01/09 03:46:05;;;;;;;0.90;0.80;;;11.10;96.00;;;10.48;63.93;97066.00;5002202;28;113170;-76
2023/01/09 03:48:32;;;;;;;1.00;0.70;;;10.10;95.50;;;10.47;63.74;97080.97;4985307;28;123124;-76
2023/01/09 03:50:58;;;;;;;1.00;0.70;;;10.00;95.40;;;10.47;64.06;97088.44;4970256;28;123726;-76
2023/01/09 03:53:27;;;;;;;0.80;0.70;;;10.00;95.40;;;10.48;64.11;97098.34;4966580;28;114350;-76
2023/01/09 03:55:56;;;;;;;1.00;0.90;;;10.10;95.50;;;10.47;64.10;97102.25;4949693;28;113943;-76
2023/01/09 03:58:24;;;;;;;1.63;0.90;;;10.30;95.60;;;10.42;64.42;97119.06;4968448;28;123761;-76
2023/01/09 04:01:00;;;;;;;2.33;0.90;;;10.00;95.40;;;10.39;64.50;97129.66;4968355;28;124303;-76
2023/01/09 04:03:26;;;;;;;0.80;0.70;;;10.00;95.50;;;10.36;64.46;97146.94;4963210;28;114272;-76
2023/01/09 04:05:53;;;;;;;0.97;0.73;;;10.00;95.60;;;10.31;64.63;97149.13;4962381;28;113997;-76
2023/01/09 04:08:20;;;;;;;0.97;0.77;;;9.90;96.10;;;10.27;64.61;97164.78;4969160;28;122980;-76
2023/01/09 04:10:50;;;;;;;1.00;0.87;;;9.90;96.10;;;10.22;64.82;97178.81;4967522;28;124074;-76
2023/01/09 04:13:17;;;;;;;3.93;0.90;;;10.10;95.80;;;10.18;64.66;97179.53;5001705;28;113454;-76
2023/01/09 04:15:43;;;;;;;1.20;0.90;;;10.10;95.90;;;10.12;64.93;97200.22;4966148;28;114619;-75
2023/01/09 04:18:10;;;;;;;0.90;0.80;;;9.80;96.20;;;10.10;64.60;97216.34;4968388;28;124542;-76
2023/01/09 04:20:36;;;;;;;0.80;0.70;;;9.70;96.00;;;10.07;64.24;97216.22;4966000;28;124062;-76
2023/01/09 04:23:03;;;;;;;0.80;0.70;;;9.80;95.80;;;10.02;63.78;97219.22;4966418;28;115291;-76
2023/01/09 04:25:30;;;;;;;1.20;0.90;;;9.90;95.70;;;9.93;62.07;97238.66;4966251;28;114966;-76
2023/01/09 04:27:56;;;;;;;0.93;0.83;;;9.70;94.90;;;9.84;61.87;97225.00;4957140;28;123478;-76
2023/01/09 04:30:23;;;;;;;0.80;0.80;;;9.60;94.50;;;9.78;61.39;97231.09;4962505;28;124056;-76
2023/01/09 04:32:50;;;;;;;0.90;0.80;;;9.40;94.20;;;9.72;60.90;97242.38;4955704;28;113362;-76
2023/01/09 04:35:18;;;;;;;1.20;1.10;;;9.40;94.10;;;9.66;60.89;97251.22;4968076;28;114574;-76
2023/01/09 04:37:44;;;;;;;1.10;0.83;;;9.30;93.90;;;9.60;60.75;97253.41;4972475;28;123431;-76
2023/01/09 04:40:12;;;;;;;0.80;0.70;;;9.30;93.90;;;9.55;60.89;97250.06;4966144;28;124110;-76
2023/01/09 04:42:39;;;;;;;0.90;0.80;;;9.20;93.80;;;9.51;60.92;97244.44;5004975;28;114193;-76
2023/01/09 04:45:09;;;;;;;0.90;0.80;;;9.30;94.20;;;9.48;60.61;97245.94;4970272;28;114143;-76
2023/01/09 04:47:35;;;;;;;0.97;0.80;;;9.20;93.80;;;9.46;60.87;97250.97;4964954;28;123739;-76
2023/01/09 04:50:03;;;;;;;0.90;0.80;;;9.10;93.70;;;9.45;60.59;97248.53;5004373;28;122933;-76
2023/01/09 04:52:29;;;;;;;1.07;0.83;;;9.10;93.80;;;9.42;60.78;97257.50;4959042;28;114445;-76
2023/01/09 04:54:56;;;;;;;0.90;0.80;;;9.10;93.70;;;9.41;60.65;97266.94;4980203;28;112165;-77
2023/01/09 04:57:22;;;;;;;0.90;0.80;;;9.10;93.70;;;9.39;60.46;97270.03;4967950;28;124053;-77
2023/01/09 04:59:49;;;;;;;1.00;0.90;;;9.10;93.70;;;9.39;60.57;97261.75;4968369;28;124541;-76
2023/01/09 05:02:15;;;;;;;1.10;0.90;;;9.10;93.70;;;9.39;60.38;97253.47;4965281;28;114576;-75
2023/01/09 05:04:42;;;;;;;1.60;0.90;;;9.00;93.60;;;9.41;60.72;97269.69;4971097;28;114516;-77
2023/01/09 05:07:09;;;;;;;0.80;0.80;;;9.10;93.60;;;9.39;60.32;97258.19;4969457;28;123922;-76
2023/01/09 05:09:35;;;;;;;0.97;0.87;;;9.10;93.50;;;9.36;60.26;97247.88;4968729;28;123543;-76
2023/01/09 05:12:02;;;;;;;1.73;0.87;;;9.20;93.60;;;9.33;60.44;97259.56;4969557;28;115302;-76
2023/01/09 05:14:29;;;;;;;1.30;0.87;;;8.90;93.40;;;9.29;60.11;97275.97;4970149;28;114960;-76
2023/01/09 05:16:55;;;;;;;0.90;0.80;;;9.00;93.40;;;9.24;60.13;97279.78;4969675;28;124195;-76
2023/01/09 05:19:22;;;;;;;1.97;0.87;;;8.90;93.40;;;9.24;60.23;97296.31;4987365;28;123069;-76
2023/01/09 05:21:48;;;;;;;1.00;0.90;;;8.90;93.40;;;9.24;60.54;97298.22;4969470;28;114435;-76
2023/01/09 05:24:15;;;;;;;1.40;0.90;;;9.10;93.50;;;9.23;60.24;97302.94;4958842;28;114073;-76
2023/01/09 05:26:41;;;;;;;1.20;0.87;;;8.90;93.40;;;9.23;60.21;97304.91;4971249;28;123098;-76
2023/01/09 05:29:08;;;;;;;1.10;0.80;;;8.90;93.40;;;9.23;60.26;97310.41;4968989;28;124012;-76
2023/01/09 05:31:35;;;;;;;2.70;1.10;;;8.90;93.30;;;9.23;59.78;97318.69;4969416;28;114658;-76
2023/01/09 05:34:02;;;;;;;1.73;0.97;;;9.30;93.40;;;9.24;60.06;97328.53;4987425;28;113012;-76
2023/01/09 05:36:28;;;;;;;0.93;0.80;;;8.90;93.20;;;9.22;59.58;97331.66;4969673;28;123794;-76
2023/01/09 05:38:56;;;;;;;1.20;1.00;;;9.50;93.30;;;9.22;59.47;97337.16;4970157;28;123912;-76
2023/01/09 05:41:25;;;;;;;1.00;0.80;;;8.90;93.00;;;9.22;59.40;97353.69;4969037;28;114248;-76
2023/01/09 05:43:51;;;;;;;1.97;0.80;;;8.90;93.00;;;9.23;59.62;97349.78;4968451;28;114247;-76
2023/01/09 05:46:18;;;;;;;2.13;1.00;;;9.20;93.10;;;9.23;59.22;97355.31;4969255;28;124687;-76
2023/01/09 05:48:45;;;;;;;1.30;0.93;;;8.90;93.00;;;9.23;59.28;97355.31;4969488;28;123389;-76
2023/01/09 05:51:12;;;;;;;1.00;0.80;;;8.80;92.90;;;9.23;59.47;97366.31;4963747;28;114345;-76
2023/01/09 05:53:39;;;;;;;1.23;0.90;;;8.90;92.90;;;9.25;59.20;97375.06;5002407;28;113958;-76
2023/01/09 05:56:05;;;;;;;1.50;0.80;;;8.90;92.90;;;9.24;59.29;97378.97;4969587;28;124469;-77
2023/01/09 05:58:32;;;;;;;1.27;0.80;;;8.90;92.80;;;9.23;58.86;97390.31;4971416;28;123576;-76
2023/01/09 06:00:58;;;;;;;3.20;1.00;;;8.90;92.70;;;9.19;58.57;97384.69;4964752;28;115273;-76
2023/01/09 06:03:25;;;;;;;4.50;0.90;;;8.80;92.50;;;9.18;58.67;97388.56;4995935;28;114125;-76
2023/01/09 06:05:51;;;;;;;1.20;0.90;;;8.80;92.50;;;9.16;58.19;97388.13;4955855;28;123834;-76
2023/01/09 06:08:18;;;;;;;1.47;0.80;;;6.80;91.50;;;9.13;58.20;97388.78;4953992;28;123898;-76
2023/01/09 06:10:46;;;;;;;2.80;1.10;;;8.80;92.20;;;9.13;58.17;97399.00;4957510;28;114834;-76
2023/01/09 06:13:13;;;;;;;1.20;1.00;;;8.80;92.20;;;9.14;57.92;97389.63;4955477;28;114327;-76
2023/01/09 06:15:39;;;;;;;1.60;1.20;;;8.70;92.10;;;9.11;58.05;97380.06;4961232;28;124062;-76
2023/01/09 06:18:06;;;;;;;1.37;0.97;;;8.70;92.10;;;9.14;58.00;97367.56;4966211;28;123708;-76
2023/01/09 06:20:33;;;;;;;2.40;1.00;;;8.70;92.10;;;9.17;57.90;97378.72;4980495;28;113367;-76
2023/01/09 06:22:59;;;;;;;1.43;0.90;;;8.80;92.10;;;9.23;58.11;97390.31;4967139;28;113199;-76
2023/01/09 06:25:26;;;;;;;2.47;1.07;;;8.80;92.10;;;9.26;57.92;97387.69;4967548;28;124110;-76
2023/01/09 06:27:52;;;;;;;2.70;1.10;;;8.90;92.20;;;9.29;57.75;97392.56;4966856;28;123880;-77
2023/01/09 06:30:19;;;;;;;1.60;1.03;;;8.80;92.10;;;9.32;57.70;97388.28;4968689;28;114284;-76
2023/01/09 06:32:49;;;;;;;1.73;0.90;;;8.90;92.10;;;9.36;57.62;97393.94;4968213;28;114082;-76
2023/01/09 06:35:19;;;;;;;1.53;1.10;;;8.90;92.10;;;9.37;57.62;97399.09;4967721;28;123907;-76
2023/01/09 06:37:49;;;;;;;1.17;0.90;;;8.90;92.10;;;9.42;58.16;97417.38;4966427;28;123895;-76
2023/01/09 06:40:17;;;;;;;1.40;1.00;;;8.90;92.40;;;9.46;58.45;97410.06;4968610;28;114474;-76
2023/01/09 06:42:45;;;;;;;1.00;0.90;;;9.00;92.60;;;9.52;58.72;97411.47;4964777;28;113188;-76
2023/01/09 06:45:12;;;;;;;1.20;1.00;;;9.00;92.70;;;9.57;58.52;97411.25;4952794;28;122975;-76
2023/01/09 06:47:39;;;;;;;1.87;1.00;;;9.10;92.70;;;9.57;58.18;97419.53;4961579;28;123830;-77
2023/01/09 06:50:10;;;;;;;2.03;0.90;;;9.10;92.50;;;9.55;57.57;97427.31;4966091;28;115680;-76
2023/01/09 06:52:37;;;;;;;4.40;1.10;;;9.00;92.30;;;9.49;57.76;97434.19;4964250;28;114578;-76
2023/01/09 06:55:05;;;;;;;5.50;1.20;;;9.00;92.10;;;9.38;57.51;97433.00;4965250;28;123992;-76
2023/01/09 06:57:31;;;;;;;1.20;0.90;;;8.90;91.90;;;9.31;58.31;97436.28;4957404;28;123401;-73
2023/01/09 06:59:57;;;;;;;2.30;1.30;;;9.20;92.30;;;9.28;58.35;97436.97;4949390;28;116108;-74
2023/01/09 07:02:24;;;;;;;2.03;1.20;;;8.90;92.30;;;9.26;58.48;97445.56;4965026;28;114025;-74
2023/01/09 07:04:50;;;;;;;3.10;1.10;;;8.80;92.20;;;9.24;58.23;97433.25;4967969;28;124068;-73
2023/01/09 07:07:18;;;;;;;1.40;1.00;;;8.80;92.20;;;9.22;58.23;97433.63;4969525;28;122510;-74
2023/01/09 07:09:45;;;;;;;4.77;1.20;;;8.80;92.10;;;9.22;58.39;97438.34;4999571;28;114275;-73
2023/01/09 07:12:11;;;;;;;1.87;1.10;;;8.80;92.30;;;9.33;60.24;97430.47;4964329;28;113923;-73
2023/01/09 07:14:39;;;;;;;4.47;1.50;;;8.90;93.10;;;9.49;59.38;97428.69;4970568;28;123975;-85
2023/01/09 07:17:44;;;;;;;3.63;1.03;;;9.00;93.20;;;9.56;58.50;97439.16;4975940;28;123572;-82
2023/01/09 07:20:11;;;;;;;3.73;1.83;;;9.00;92.80;;;9.53;58.58;97435.13;4960009;28;114219;-84
2023/01/09 07:22:37;;;;;;;1.97;1.20;;;9.10;92.60;;;9.51;58.00;97440.19;4953850;28;112030;-75
2023/01/09 07:25:05;;;;;;;1.83;1.10;;;9.10;92.40;;;9.47;57.66;97430.97;4966916;28;124191;-75
2023/01/09 07:27:31;;;;;;;2.50;1.50;;;9.00;92.20;;;9.44;57.69;97449.00;4963621;28;124163;-74
2023/01/09 07:29:58;;;;;;;3.60;1.40;;;9.00;92.10;;;9.38;57.44;97450.34;4968056;28;114453;-75
2023/01/09 07:32:25;;;;;;;3.93;1.57;;;9.00;92.00;;;9.29;57.47;97442.16;4962793;28;114049;-75
2023/01/09 07:34:52;;;;;;;1.87;1.30;;;8.90;91.80;;;9.24;57.32;97439.59;4965566;28;124059;-77
2023/01/09 07:37:18;;;;;;;2.67;1.20;;;8.80;91.70;;;9.18;57.44;97446.44;4959177;28;122932;-76
2023/01/09 07:39:45;;;;;;;3.47;1.37;;;8.80;91.70;;;9.13;57.28;97448.59;4966216;28;115321;-77
2023/01/09 07:42:12;;;;;;;6.30;1.53;;;8.70;91.60;;;9.10;57.33;97446.53;4965109;28;115295;-76
2023/01/09 07:44:38;;;;;;;6.63;1.80;;;8.70;91.60;;;9.10;57.48;97443.75;4985200;28;123021;-77
2023/01/09 07:47:05;;;;;;;3.37;1.63;;;8.70;91.70;;;9.10;57.40;97432.75;4999486;28;123979;-76
2023/01/09 07:49:31;;;;;;;4.23;1.37;;;8.70;91.70;;;9.13;57.18;97437.56;5002294;28;113692;-76
2023/01/09 07:51:58;;;;;;;2.40;1.20;;;8.70;91.80;;;9.12;57.42;97442.28;4968601;28;114064;-80
2023/01/09 07:54:24;;;;;;;2.13;1.70;;;8.70;91.80;;;9.11;57.07;97439.84;4964615;28;122942;-76
2023/01/09 07:56:51;;;;;;;3.23;1.30;;;8.70;91.70;;;9.07;57.36;97445.25;4967451;28;123924;-77
2023/01/09 07:59:17;;;;;;;2.47;1.23;;;8.80;91.80;;;9.05;57.54;97450.28;5001787;28;113851;-79
2023/01/09 08:01:44;;;;;;;3.03;1.50;;;8.60;92.00;;;9.05;57.46;97458.53;4969647;28;113491;-74
2023/01/09 08:04:12;;;;;;;2.97;1.27;;;8.60;91.80;;;9.06;57.64;97460.97;4961638;28;124239;-74
2023/01/09 08:06:38;;;;;;;1.60;1.07;;;8.60;91.80;;;9.08;57.54;97471.66;4971333;28;123831;-76
2023/01/09 08:09:05;;;;;;;1.93;1.33;;;8.60;91.80;;;9.11;57.34;97461.91;4974034;28;111782;-76
2023/01/09 08:11:31;;;;;;;1.23;0.93;;;8.60;91.90;;;9.11;57.57;97462.72;4972642;28;114096;-77
2023/01/09 08:13:58;;;;;;;3.07;1.20;;;8.60;91.80;;;9.13;57.78;97474.19;4971794;28;123192;-78
2023/01/09 08:16:24;;;;;;;1.40;1.10;;;8.70;91.90;;;9.17;57.60;97472.41;4973182;28;123072;-77
2023/01/09 08:18:51;;;;;;;2.10;1.23;;;8.70;91.90;;;9.20;57.50;97476.44;4972568;28;114384;-77
2023/01/09 08:21:18;;;;;;;2.50;1.17;;;8.70;91.90;;;9.22;57.55;97483.22;4972904;28;113099;-77
2023/01/09 08:23:47;;;;;;;1.20;1.03;;;8.70;91.90;;;9.25;57.59;97484.50;4969873;28;124535;-76
2023/01/09 08:26:13;;;;;;;2.60;1.00;;;8.70;91.90;;;9.28;57.68;97486.59;4971138;28;122836;-78
2023/01/09 08:28:40;;;;;;;2.90;1.43;;;8.80;91.90;;;9.28;57.08;97484.63;4969783;28;115172;-77
2023/01/09 08:31:07;;;;;;;2.90;1.30;;;8.80;91.80;;;9.26;56.97;97489.66;4970298;28;116150;-77
2023/01/09 08:33:33;;;;;;;3.73;1.27;;;8.80;91.70;;;9.24;56.98;97478.19;4967399;28;123429;-75
2023/01/09 08:35:59;;;;;;;2.53;1.40;;;8.80;91.70;;;9.22;57.25;97485.97;5000305;28;122713;-74
2023/01/09 08:38:26;;;;;;;1.00;0.90;;;8.70;91.60;;;9.21;57.00;97487.09;4967894;28;114182;-76
2023/01/09 08:40:52;;;;;;;1.73;1.53;;;8.70;91.60;;;9.20;57.20;97493.78;4965460;28;113969;-79
2023/01/09 08:48:50;;;;;;;3.00;1.37;;;8.70;91.60;;;9.19;57.04;97481.16;4969843;28;114807;-75
2023/01/09 08:51:16;;;;;;;3.27;1.47;;;8.70;91.60;;;9.18;56.99;97465.72;4971061;28;113988;-75
2023/01/09 08:53:43;;;;;;;1.53;1.00;;;8.70;91.50;;;9.17;57.00;97475.16;4967001;28;123205;-75
2023/01/09 08:56:09;;;;;;;6.90;1.40;;;8.70;91.50;;;9.20;56.81;97480.00;4954748;28;123769;-75
2023/01/09 08:58:36;;;;;;;2.47;1.33;;;8.70;91.50;;;9.19;56.88;97492.16;4964870;28;114027;-76
2023/01/09 09:01:06;;;;;;;4.40;1.40;;;8.70;91.40;;;9.20;56.69;97490.22;4964708;28;113752;-76
2023/01/09 09:03:33;;;;;;;2.67;1.30;;;8.70;91.40;;;9.20;56.62;97496.53;4964998;28;124014;-74
2023/01/09 09:05:59;;;;;;;5.93;1.43;;;8.70;91.40;;;9.23;56.27;97497.81;4968411;28;123889;-76
2023/01/09 09:08:26;;;;;;;3.47;1.20;;;8.70;91.40;;;9.25;56.30;97496.31;4969905;28;114196;-77
2023/01/09 09:10:52;;;;;;;4.40;1.37;;;9.00;91.40;;;9.28;56.33;97484.63;4970129;28;113257;-77
2023/01/09 09:13:19;;;;;;;8.43;1.30;;;8.80;91.30;;;9.29;56.30;97480.75;4972137;28;124459;-76
2023/01/09 09:15:45;;;;;;;2.37;1.13;;;8.80;91.20;;;9.31;56.00;97487.88;4973823;28;123924;-78
2023/01/09 09:18:12;;;;;;;3.07;1.30;;;8.80;91.10;;;9.31;56.10;97487.88;4967457;28;115559;-77
2023/01/09 09:20:38;;;;;;;4.13;1.10;;;8.80;91.00;;;9.30;56.13;97478.78;4969890;28;114861;-76
2023/01/09 09:23:07;;;;;;;6.60;1.20;;;8.80;91.00;;;9.29;55.87;97479.91;4968826;28;123977;-76
2023/01/09 09:25:33;;;;;;;2.33;1.30;;;8.80;91.00;;;9.30;55.76;97487.06;5000643;28;123045;-77
2023/01/09 09:28:00;;;;;;;3.50;1.10;;;8.80;91.00;;;9.29;56.19;97486.25;4983850;28;113285;-76
2023/01/09 09:30:27;;;;;;;2.13;1.20;;;10.30;91.10;;;9.31;55.94;97487.88;4969294;28;113978;-76
2023/01/09 09:32:53;;;;;;;2.97;1.47;;;8.90;91.00;;;9.31;56.14;97490.63;4966201;28;125265;-76
2023/01/09 09:35:21;;;;;;;1.73;1.10;;;8.80;90.90;;;9.31;56.23;97499.69;4966254;28;123924;-74
2023/01/09 09:37:57;;;;;;;2.70;1.13;;;8.80;91.00;;;9.34;55.89;97492.69;4967362;28;114617;-75
2023/01/09 09:44:41;;;;;;;3.80;2.20;;;8.90;91.00;;;9.35;55.81;97494.31;4995255;28;113823;-75
2023/01/09 09:44:45;;;;;;;3.27;1.20;;;8.90;91.00;;;9.35;56.00;97500.63;4955884;28;123963;-74
2023/01/09 09:47:43;;;;;;;3.00;1.40;;;8.90;91.00;;;9.39;56.05;97495.25;4965782;28;123755;-75
2023/01/09 09:50:38;;;;;;;3.43;1.30;;;8.90;90.90;;;9.41;55.73;97515.81;4971016;28;113764;-75
2023/01/09 09:53:48;;;;;;;1.63;1.13;;;8.90;90.90;;;9.46;55.81;97517.59;4935085;28;113810;-75
2023/01/09 09:56:20;;;;;;;6.60;1.30;;;9.00;90.90;;;9.50;55.69;97524.03;4997980;28;124436;-77
2023/01/09 09:58:58;;;;;;;2.07;1.20;;;9.10;90.90;;;9.55;55.62;97512.00;4956372;28;123682;-78
2023/01/09 10:01:39;;;;;;;1.83;1.27;;;9.10;90.90;;;9.60;55.48;97504.31;4995911;28;115267;-76
2023/01/09 10:04:13;;;;;;;7.50;1.50;;;9.10;90.80;;;9.66;55.56;97505.72;4997549;28;113824;-75
2023/01/09 10:06:51;;;;;;;6.50;1.20;;;9.20;90.90;;;9.72;55.53;97498.88;4970443;28;123917;-76
2023/01/09 10:09:54;;;;;;;6.23;1.60;;;9.20;90.80;;;9.81;55.64;97500.72;5002005;28;121805;-75
2023/01/09 10:12:29;;;;;;;3.90;1.70;;;9.30;90.80;;;9.90;55.64;97488.44;4980980;28;115545;-76
2023/01/09 10:15:13;;;;;;;2.73;1.20;;;9.40;90.90;;;10.01;55.30;97486.06;4964823;28;114772;-76
2023/01/09 10:17:57;;;;;;;3.23;1.47;;;9.50;91.10;;;10.11;55.10;97482.06;4964407;28;123971;-73
2023/01/09 10:20:24;;;;;;;2.03;1.30;;;9.50;90.80;;;10.23;54.94;97490.34;4966141;28;123928;-73
2023/01/09 10:23:11;;;;;;;2.90;1.00;;;9.60;90.70;;;10.31;54.63;97474.88;4955260;28;113442;-74
2023/01/09 10:26:04;;;;;;;4.03;1.30;;;9.70;90.60;;;10.35;54.52;97478.59;4965679;28;114205;-74
2023/01/09 10:28:42;;;;;;;3.30;1.10;;;9.80;90.50;;;10.36;54.22;97475.47;4903625;28;124302;-74
2023/01/09 10:31:44;;;;;;;4.93;1.57;;;9.80;90.40;;;10.38;54.37;97475.13;4951833;28;123898;-73
2023/01/09 10:34:10;;;;;;;3.10;1.30;;;9.80;90.40;;;10.36;54.57;97474.66;4965292;28;114338;-74
2023/01/09 10:36:54;;;;;;;3.70;1.53;;;10.10;90.00;;;10.41;54.08;97468.13;4966632;28;114856;-76
2023/01/09 10:39:37;;;;;;;4.90;1.20;;;9.90;90.40;;;10.40;54.48;97467.31;4994476;28;126223;-75
2023/01/09 10:42:11;;;;;;;2.00;1.30;;;9.90;90.40;;;10.39;54.17;97465.69;4961666;28;123720;-77
2023/01/09 10:45:01;;;;;;;4.53;1.50;;;9.90;90.30;;;10.40;54.01;97467.31;4962259;28;113541;-77
2023/01/09 10:47:36;;;;;;;3.07;1.40;;;9.90;90.30;;;10.42;54.30;97465.00;4965050;28;113801;-76